Aérodrome :
LOGIN :

S'inscrire | Disclaimer

   EN    FR    IT 

 










Légende :    VFR   VFR Marginal   IFR   IFR Intensif   IFR Très Intensif
Visi : 
Plafond : 
>= 8 km
>= 3000ft
5 à 8 km
1000 à 3000 ft
1500m à 5 km
500 à 1000 ft
800 à 1500m
200 à 500 ft
< 800m
< 200 ft
Symboles :   Orages  Brouillard  Fortes neiges  Fortes précipitations  Vent > 20 kt
SIGMETs :   Divers  Orages  Givrage  Turbulence  Onde Orograph.  Cendres Volcan.






- Altitude de l'aérodrome : 1306 ft
- Code IATA : ACH


LSZR - Alten Rhein

DERNIER METAR :
  • 041450Z VRB02KT 9999 -RA FEW018 BKN065 16/15 Q1014 NOSIG RMK K

METARs EXPIRÉS :
  • 041420Z VRB02KT 9999 -RA FEW018 BKN065 16/15 Q1014 NOSIG RMK K
  • 041350Z 27004KT 230V300 9999 -RA FEW018 BKN065 17/15 Q1014 NOSIG RMK J
  • 041320Z 27004KT 230V300 9999 -RA FEW018 BKN065 17/15 Q1014 NOSIG RMK J
  • 041250Z AUTO 29003KT 260V330 9999 -RA SCT065 BKN075 BKN090 17/16 Q1014
  • 041220Z VRB02KT 9999 -RA FEW020 BKN080 17/15 Q1014 NOSIG RMK I

TAF TAF LSZR
Valide du 04 à 15h jusqu'au 05 à 00h UTC


041425Z 0415/0424 VRB02KT 9999 -RA FEW018 BKN060
TEMPO 0415/0424 RA
ATIS : +41 71 858 51 66



MET'MAP, la Météo Aéronautique d'un coup d'oeil ! - Copyright ORBIFLY Décembre 2007 - Disclaimer

ORBIFLY MET'MAP TEAM :

Programmation & Développement : Alexandra Zaïnal
Sur une idée originale de : Baudouin d'Aumeries
Assistance à la programmation : Marc-Olivier Méhu
Soutien technique & logistique : Manuel Goepfert

Contact : metmap@orbifly.com




SOURCES & CREDITS :

   NOAA